sensor_id;sensor_type;location;lat;lon;timestamp;pressure;altitude;pressure_sealevel;temperature;humidity
5877;BME280;2964;42.144;24.730;2022-12-10T00:02:01;143669.59;;;8.35;100.00
5877;BME280;2964;42.144;24.730;2022-12-10T00:04:28;143601.91;;;8.07;100.00
5877;BME280;2964;42.144;24.730;2022-12-10T00:06:54;143679.63;;;8.39;100.00
5877;BME280;2964;42.144;24.730;2022-12-10T00:09:21;143660.81;;;8.31;100.00
5877;BME280;2964;42.144;24.730;2022-12-10T00:11:48;143611.94;;;8.11;100.00
5877;BME280;2964;42.144;24.730;2022-12-10T00:14:15;143639.50;;;8.22;100.00
5877;BME280;2964;42.144;24.730;2022-12-10T00:16:44;143684.63;;;8.41;100.00
5877;BME280;2964;42.144;24.730;2022-12-10T00:19:10;143694.75;;;8.45;100.00
5877;BME280;2964;42.144;24.730;2022-12-10T00:21:37;143712.31;;;8.52;100.00
5877;BME280;2964;42.144;24.730;2022-12-10T00:24:05;143692.22;;;8.44;100.00
5877;BME280;2964;42.144;24.730;2022-12-10T00:26:34;143689.75;;;8.43;100.00
5877;BME280;2964;42.144;24.730;2022-12-10T00:29:04;143771.25;;;8.76;100.00
5877;BME280;2964;42.144;24.730;2022-12-10T00:31:33;143746.16;;;8.66;100.00
5877;BME280;2964;42.144;24.730;2022-12-10T00:34:04;143664.59;;;8.32;100.00
5877;BME280;2964;42.144;24.730;2022-12-10T00:36:32;143664.59;;;8.32;100.00
5877;BME280;2964;42.144;24.730;2022-12-10T00:39:00;143680.91;;;8.39;100.00
5877;BME280;2964;42.144;24.730;2022-12-10T00:41:27;143688.47;;;8.42;100.00
5877;BME280;2964;42.144;24.730;2022-12-10T00:43:54;143648.28;;;8.26;100.00
5877;BME280;2964;42.144;24.730;2022-12-10T00:46:20;143709.78;;;8.51;100.00
5877;BME280;2964;42.144;24.730;2022-12-10T00:48:47;143698.47;;;8.46;100.00
5877;BME280;2964;42.144;24.730;2022-12-10T00:51:17;143668.38;;;8.34;100.00
5877;BME280;2964;42.144;24.730;2022-12-10T00:53:46;143652.06;;;8.27;100.00
5877;BME280;2964;42.144;24.730;2022-12-10T00:56:14;143680.91;;;8.39;100.00
5877;BME280;2964;42.144;24.730;2022-12-10T00:58:41;143677.16;;;8.38;100.00
5877;BME280;2964;42.144;24.730;2022-12-10T01:01:10;143615.69;;;8.12;100.00
5877;BME280;2964;42.144;24.730;2022-12-10T01:03:37;143614.47;;;8.12;100.00
5877;BME280;2964;42.144;24.730;2022-12-10T01:06:12;143657.06;;;8.29;100.00
5877;BME280;2964;42.144;24.730;2022-12-10T01:08:41;143616.94;;;8.13;100.00
5877;BME280;2964;42.144;24.730;2022-12-10T01:11:09;143580.59;;;7.98;100.00
5877;BME280;2964;42.144;24.730;2022-12-10T01:13:36;143581.88;;;7.99;100.00
5877;BME280;2964;42.144;24.730;2022-12-10T01:16:04;143601.91;;;8.07;100.00
5877;BME280;2964;42.144;24.730;2022-12-10T01:18:31;143545.47;;;7.84;100.00
5877;BME280;2964;42.144;24.730;2022-12-10T01:21:01;143586.88;;;8.01;100.00
5877;BME280;2964;42.144;24.730;2022-12-10T01:23:28;143553.03;;;7.87;100.00
5877;BME280;2964;42.144;24.730;2022-12-10T01:25:59;143571.81;;;7.95;100.00
5877;BME280;2964;42.144;24.730;2022-12-10T01:28:28;143621.94;;;8.15;100.00
5877;BME280;2964;42.144;24.730;2022-12-10T01:30:55;143579.34;;;7.98;100.00
5877;BME280;2964;42.144;24.730;2022-12-10T01:33:22;143664.59;;;8.32;100.00
5877;BME280;2964;42.144;24.730;2022-12-10T01:35:49;143706.00;;;8.49;100.00
5877;BME280;2964;42.144;24.730;2022-12-10T01:38:15;143606.91;;;8.09;100.00
5877;BME280;2964;42.144;24.730;2022-12-10T01:40:42;143621.94;;;8.15;100.00
5877;BME280;2964;42.144;24.730;2022-12-10T01:43:12;143566.81;;;7.92;100.00
5877;BME280;2964;42.144;24.730;2022-12-10T01:45:40;143630.72;;;8.19;100.00
5877;BME280;2964;42.144;24.730;2022-12-10T01:48:07;143662.06;;;8.31;100.00
5877;BME280;2964;42.144;24.730;2022-12-10T01:50:34;143520.44;;;7.73;100.00
5877;BME280;2964;42.144;24.730;2022-12-10T01:53:00;143594.38;;;8.04;100.00
5877;BME280;2964;42.144;24.730;2022-12-10T01:55:40;143586.88;;;8.01;100.00
5877;BME280;2964;42.144;24.730;2022-12-10T01:58:08;143595.66;;;8.04;100.00
5877;BME280;2964;42.144;24.730;2022-12-10T02:00:40;143601.91;;;8.07;100.00
5877;BME280;2964;42.144;24.730;2022-12-10T02:03:14;143621.94;;;8.15;100.00
5877;BME280;2964;42.144;24.730;2022-12-10T02:05:49;143689.75;;;8.43;100.00
5877;BME280;2964;42.144;24.730;2022-12-10T02:08:22;143589.38;;;8.02;100.00
5877;BME280;2964;42.144;24.730;2022-12-10T02:11:01;143655.81;;;8.29;100.00
5877;BME280;2964;42.144;24.730;2022-12-10T02:13:34;143564.31;;;7.91;100.00
5877;BME280;2964;42.144;24.730;2022-12-10T02:16:08;143605.69;;;8.08;100.00
5877;BME280;2964;42.144;24.730;2022-12-10T02:18:41;143677.16;;;8.38;100.00
5877;BME280;2964;42.144;24.730;2022-12-10T02:21:12;143674.63;;;8.37;100.00
5877;BME280;2964;42.144;24.730;2022-12-10T02:23:44;143620.72;;;8.15;100.00
5877;BME280;2964;42.144;24.730;2022-12-10T02:26:16;143616.94;;;8.13;100.00
5877;BME280;2964;42.144;24.730;2022-12-10T02:28:48;143665.84;;;8.33;100.00
5877;BME280;2964;42.144;24.730;2022-12-10T02:31:21;143658.34;;;8.30;100.00
5877;BME280;2964;42.144;24.730;2022-12-10T02:33:51;143708.53;;;8.50;100.00
5877;BME280;2964;42.144;24.730;2022-12-10T02:36:21;143650.81;;;8.27;100.00
5877;BME280;2964;42.144;24.730;2022-12-10T02:38:51;143576.81;;;7.97;100.00
5877;BME280;2964;42.144;24.730;2022-12-10T02:41:22;143539.25;;;7.81;100.00
5877;BME280;2964;42.144;24.730;2022-12-10T02:43:52;143644.50;;;8.24;100.00
5877;BME280;2964;42.144;24.730;2022-12-10T02:46:23;143558.03;;;7.89;100.00
5877;BME280;2964;42.144;24.730;2022-12-10T02:48:51;143601.91;;;8.07;100.00
5877;BME280;2964;42.144;24.730;2022-12-10T02:51:18;143664.59;;;8.32;100.00
5877;BME280;2964;42.144;24.730;2022-12-10T02:53:45;143640.78;;;8.23;100.00
5877;BME280;2964;42.144;24.730;2022-12-10T02:56:19;143694.75;;;8.45;100.00
5877;BME280;2964;42.144;24.730;2022-12-10T02:58:56;143618.22;;;8.14;100.00
5877;BME280;2964;42.144;24.730;2022-12-10T03:01:32;143665.84;;;8.33;100.00
5877;BME280;2964;42.144;24.730;2022-12-10T03:04:06;143682.16;;;8.40;100.00
5877;BME280;2964;42.144;24.730;2022-12-10T03:06:40;143569.34;;;7.93;100.00
5877;BME280;2964;42.144;24.730;2022-12-10T03:09:14;143633.25;;;8.20;100.00
5877;BME280;2964;42.144;24.730;2022-12-10T03:11:45;143620.72;;;8.15;100.00
5877;BME280;2964;42.144;24.730;2022-12-10T03:14:15;143616.94;;;8.13;100.00
5877;BME280;2964;42.144;24.730;2022-12-10T03:16:49;143640.78;;;8.23;100.00
5877;BME280;2964;42.144;24.730;2022-12-10T03:19:22;143627.00;;;8.17;100.00
5877;BME280;2964;42.144;24.730;2022-12-10T03:21:51;143596.91;;;8.05;100.00
5877;BME280;2964;42.144;24.730;2022-12-10T03:24:19;143662.06;;;8.31;100.00
5877;BME280;2964;42.144;24.730;2022-12-10T03:26:48;143640.78;;;8.23;100.00
5877;BME280;2964;42.144;24.730;2022-12-10T03:29:21;143593.13;;;8.03;100.00
5877;BME280;2964;42.144;24.730;2022-12-10T03:31:50;143672.13;;;8.36;100.00
5877;BME280;2964;42.144;24.730;2022-12-10T03:34:19;143576.81;;;7.97;100.00
5877;BME280;2964;42.144;24.730;2022-12-10T03:36:47;143594.38;;;8.04;100.00
5877;BME280;2964;42.144;24.730;2022-12-10T03:39:16;143589.38;;;8.02;100.00
5877;BME280;2964;42.144;24.730;2022-12-10T03:41:43;143692.22;;;8.44;100.00
5877;BME280;2964;42.144;24.730;2022-12-10T03:44:10;143642.03;;;8.23;100.00
5877;BME280;2964;42.144;24.730;2022-12-10T03:46:37;143564.31;;;7.91;100.00
5877;BME280;2964;42.144;24.730;2022-12-10T03:49:06;143551.78;;;7.86;100.00
5877;BME280;2964;42.144;24.730;2022-12-10T03:51:33;143529.22;;;7.77;100.00
5877;BME280;2964;42.144;24.730;2022-12-10T03:54:00;143511.66;;;7.70;100.00
5877;BME280;2964;42.144;24.730;2022-12-10T03:56:26;143536.75;;;7.80;100.00
5877;BME280;2964;42.144;24.730;2022-12-10T03:58:53;143546.78;;;7.84;100.00
5877;BME280;2964;42.144;24.730;2022-12-10T04:01:20;143551.78;;;7.86;100.00
5877;BME280;2964;42.144;24.730;2022-12-10T04:03:46;143554.25;;;7.87;100.00
5877;BME280;2964;42.144;24.730;2022-12-10T04:06:16;143560.56;;;7.90;100.00
5877;BME280;2964;42.144;24.730;2022-12-10T04:08:47;143524.22;;;7.75;100.00
5877;BME280;2964;42.144;24.730;2022-12-10T04:11:15;143444.00;;;7.42;100.00
5877;BME280;2964;42.144;24.730;2022-12-10T04:14:32;143541.75;;;7.82;100.00
5877;BME280;2964;42.144;24.730;2022-12-10T04:16:59;143599.38;;;8.06;100.00
5877;BME280;2964;42.144;24.730;2022-12-10T04:19:26;143554.25;;;7.87;100.00
5877;BME280;2964;42.144;24.730;2022-12-10T04:21:54;143534.22;;;7.79;100.00
5877;BME280;2964;42.144;24.730;2022-12-10T04:24:38;143531.69;;;7.78;100.00
5877;BME280;2964;42.144;24.730;2022-12-10T04:27:24;143491.66;;;7.62;100.00
5877;BME280;2964;42.144;24.730;2022-12-10T04:29:52;143525.47;;;7.76;100.00
5877;BME280;2964;42.144;24.730;2022-12-10T04:32:20;143511.66;;;7.70;100.00
5877;BME280;2964;42.144;24.730;2022-12-10T04:34:48;143426.47;;;7.35;100.00
5877;BME280;2964;42.144;24.730;2022-12-10T04:37:17;143515.44;;;7.71;100.00
5877;BME280;2964;42.144;24.730;2022-12-10T04:39:44;143494.13;;;7.63;100.00
5877;BME280;2964;42.144;24.730;2022-12-10T04:42:11;143522.94;;;7.74;100.00
5877;BME280;2964;42.144;24.730;2022-12-10T04:44:38;143514.19;;;7.71;100.00
5877;BME280;2964;42.144;24.730;2022-12-10T04:47:06;143569.34;;;7.93;100.00
5877;BME280;2964;42.144;24.730;2022-12-10T04:49:34;143618.22;;;8.14;100.00
5877;BME280;2964;42.144;24.730;2022-12-10T04:52:01;143564.31;;;7.91;100.00
5877;BME280;2964;42.144;24.730;2022-12-10T04:54:29;143525.47;;;7.76;100.00
5877;BME280;2964;42.144;24.730;2022-12-10T04:56:56;143460.31;;;7.49;100.00
5877;BME280;2964;42.144;24.730;2022-12-10T04:59:23;143544.25;;;7.83;100.00
5877;BME280;2964;42.144;24.730;2022-12-10T05:01:50;143555.53;;;7.88;100.00
5877;BME280;2964;42.144;24.730;2022-12-10T05:04:18;143556.78;;;7.88;100.00
5877;BME280;2964;42.144;24.730;2022-12-10T05:06:46;143538.00;;;7.81;100.00
5877;BME280;2964;42.144;24.730;2022-12-10T05:09:14;143560.56;;;7.90;100.00
5877;BME280;2964;42.144;24.730;2022-12-10T05:11:43;143620.72;;;8.15;100.00
5877;BME280;2964;42.144;24.730;2022-12-10T05:14:10;143614.47;;;8.12;100.00
5877;BME280;2964;42.144;24.730;2022-12-10T05:16:37;143555.53;;;7.88;100.00
5877;BME280;2964;42.144;24.730;2022-12-10T05:19:03;143596.91;;;8.05;100.00
5877;BME280;2964;42.144;24.730;2022-12-10T05:21:31;143629.47;;;8.18;100.00
5877;BME280;2964;42.144;24.730;2022-12-10T05:24:11;143616.94;;;8.13;100.00
5877;BME280;2964;42.144;24.730;2022-12-10T05:26:38;143629.47;;;8.18;100.00
5877;BME280;2964;42.144;24.730;2022-12-10T05:29:06;143554.25;;;7.87;100.00
5877;BME280;2964;42.144;24.730;2022-12-10T05:31:35;143554.25;;;7.87;100.00
5877;BME280;2964;42.144;24.730;2022-12-10T05:34:02;143534.22;;;7.79;100.00
5877;BME280;2964;42.144;24.730;2022-12-10T05:36:31;143609.44;;;8.10;100.00
5877;BME280;2964;42.144;24.730;2022-12-10T05:38:58;143556.78;;;7.88;100.00
5877;BME280;2964;42.144;24.730;2022-12-10T05:41:26;143526.69;;;7.76;100.00
5877;BME280;2964;42.144;24.730;2022-12-10T05:43:54;143583.13;;;7.99;100.00
5877;BME280;2964;42.144;24.730;2022-12-10T05:46:24;143614.47;;;8.12;100.00
5877;BME280;2964;42.144;24.730;2022-12-10T05:48:51;143614.47;;;8.12;100.00
5877;BME280;2964;42.144;24.730;2022-12-10T05:51:20;143559.31;;;7.89;100.00
5877;BME280;2964;42.144;24.730;2022-12-10T05:53:47;143586.88;;;8.01;100.00
5877;BME280;2964;42.144;24.730;2022-12-10T05:56:16;143549.25;;;7.85;100.00
5877;BME280;2964;42.144;24.730;2022-12-10T05:58:48;143555.53;;;7.88;100.00
5877;BME280;2964;42.144;24.730;2022-12-10T06:01:17;143545.47;;;7.84;100.00
5877;BME280;2964;42.144;24.730;2022-12-10T06:03:46;143566.81;;;7.92;100.00
5877;BME280;2964;42.144;24.730;2022-12-10T06:06:13;143487.88;;;7.60;100.00
5877;BME280;2964;42.144;24.730;2022-12-10T06:08:40;143599.38;;;8.06;100.00
5877;BME280;2964;42.144;24.730;2022-12-10T06:11:09;143595.66;;;8.04;100.00
5877;BME280;2964;42.144;24.730;2022-12-10T06:13:36;143570.56;;;7.94;100.00
5877;BME280;2964;42.144;24.730;2022-12-10T06:16:04;143555.53;;;7.88;100.00
5877;BME280;2964;42.144;24.730;2022-12-10T06:18:31;143494.13;;;7.63;100.00
5877;BME280;2964;42.144;24.730;2022-12-10T06:21:02;143634.50;;;8.20;100.00
5877;BME280;2964;42.144;24.730;2022-12-10T06:23:29;143554.25;;;7.87;100.00
5877;BME280;2964;42.144;24.730;2022-12-10T06:25:56;143579.34;;;7.98;100.00
5877;BME280;2964;42.144;24.730;2022-12-10T06:28:23;143677.16;;;8.38;100.00
5877;BME280;2964;42.144;24.730;2022-12-10T06:30:49;143692.22;;;8.44;100.00
5877;BME280;2964;42.144;24.730;2022-12-10T06:33:16;143647.03;;;8.25;100.00
5877;BME280;2964;42.144;24.730;2022-12-10T06:35:43;143630.72;;;8.19;100.00
5877;BME280;2964;42.144;24.730;2022-12-10T06:38:11;143654.56;;;8.28;100.00
5877;BME280;2964;42.144;24.730;2022-12-10T06:40:39;143643.28;;;8.24;100.00
5877;BME280;2964;42.144;24.730;2022-12-10T06:43:06;143693.47;;;8.44;100.00
5877;BME280;2964;42.144;24.730;2022-12-10T06:45:33;143570.56;;;7.94;100.00
5877;BME280;2964;42.144;24.730;2022-12-10T06:47:59;143714.78;;;8.53;100.00
5877;BME280;2964;42.144;24.730;2022-12-10T06:50:26;143727.34;;;8.58;100.00
5877;BME280;2964;42.144;24.730;2022-12-10T06:52:53;143763.72;;;8.73;100.00
5877;BME280;2964;42.144;24.730;2022-12-10T06:55:21;143724.81;;;8.57;100.00
5877;BME280;2964;42.144;24.730;2022-12-10T06:57:50;143675.84;;;8.37;100.00
5877;BME280;2964;42.144;24.730;2022-12-10T07:00:17;143632.00;;;8.19;100.00
5877;BME280;2964;42.144;24.730;2022-12-10T07:02:44;143674.63;;;8.37;100.00
5877;BME280;2964;42.144;24.730;2022-12-10T07:05:10;143673.38;;;8.36;100.00
5877;BME280;2964;42.144;24.730;2022-12-10T07:07:37;143685.94;;;8.41;100.00
5877;BME280;2964;42.144;24.730;2022-12-10T07:10:05;143717.31;;;8.54;100.00
5877;BME280;2964;42.144;24.730;2022-12-10T07:12:33;143757.47;;;8.71;100.00
5877;BME280;2964;42.144;24.730;2022-12-10T07:15:00;143746.16;;;8.66;100.00
5877;BME280;2964;42.144;24.730;2022-12-10T07:17:26;143709.78;;;8.51;100.00
5877;BME280;2964;42.144;24.730;2022-12-10T07:19:53;143743.63;;;8.65;100.00
5877;BME280;2964;42.144;24.730;2022-12-10T07:22:20;143736.13;;;8.62;100.00
5877;BME280;2964;42.144;24.730;2022-12-10T07:24:47;143708.53;;;8.50;100.00
5877;BME280;2964;42.144;24.730;2022-12-10T07:27:15;143650.81;;;8.27;100.00
5877;BME280;2964;42.144;24.730;2022-12-10T07:29:43;143669.59;;;8.35;100.00
5877;BME280;2964;42.144;24.730;2022-12-10T07:32:10;143767.47;;;8.75;100.00
5877;BME280;2964;42.144;24.730;2022-12-10T07:34:37;143780.03;;;8.80;100.00
5877;BME280;2964;42.144;24.730;2022-12-10T07:37:03;143792.53;;;8.85;100.00
5877;BME280;2964;42.144;24.730;2022-12-10T07:39:30;143704.78;;;8.49;100.00
5877;BME280;2964;42.144;24.730;2022-12-10T07:41:57;143816.41;;;8.95;100.00
5877;BME280;2964;42.144;24.730;2022-12-10T07:44:25;143777.50;;;8.79;100.00
5877;BME280;2964;42.144;24.730;2022-12-10T07:46:54;143714.78;;;8.53;100.00
5877;BME280;2964;42.144;24.730;2022-12-10T07:49:21;143639.50;;;8.22;100.00
5877;BME280;2964;42.144;24.730;2022-12-10T07:51:49;143599.38;;;8.06;100.00
5877;BME280;2964;42.144;24.730;2022-12-10T07:54:17;143793.81;;;8.85;100.00
5877;BME280;2964;42.144;24.730;2022-12-10T07:56:44;143757.47;;;8.71;100.00
5877;BME280;2964;42.144;24.730;2022-12-10T07:59:11;143729.81;;;8.59;100.00
5877;BME280;2964;42.144;24.730;2022-12-10T08:01:37;143749.91;;;8.67;100.00
5877;BME280;2964;42.144;24.730;2022-12-10T08:04:05;143842.72;;;9.05;100.00
5877;BME280;2964;42.144;24.730;2022-12-10T08:06:32;143753.69;;;8.69;100.00
5877;BME280;2964;42.144;24.730;2022-12-10T08:09:00;143805.09;;;8.90;100.00
5877;BME280;2964;42.144;24.730;2022-12-10T08:11:27;143841.47;;;9.05;100.00
5877;BME280;2964;42.144;24.730;2022-12-10T08:13:54;143798.84;;;8.87;100.00
5877;BME280;2964;42.144;24.730;2022-12-10T08:16:23;143793.81;;;8.85;100.00
5877;BME280;2964;42.144;24.730;2022-12-10T08:18:50;143820.13;;;8.96;100.00
5877;BME280;2964;42.144;24.730;2022-12-10T08:21:20;143862.81;;;9.14;100.00
5877;BME280;2964;42.144;24.730;2022-12-10T08:23:48;143837.69;;;9.03;100.00
5877;BME280;2964;42.144;24.730;2022-12-10T08:26:17;143810.09;;;8.92;100.00
5877;BME280;2964;42.144;24.730;2022-12-10T08:28:45;143859.03;;;9.12;100.00
5877;BME280;2964;42.144;24.730;2022-12-10T08:31:13;143795.06;;;8.86;100.00
5877;BME280;2964;42.144;24.730;2022-12-10T08:33:40;143782.50;;;8.81;100.00
5877;BME280;2964;42.144;24.730;2022-12-10T08:36:09;143892.94;;;9.26;100.00
5877;BME280;2964;42.144;24.730;2022-12-10T08:38:38;143841.47;;;9.05;100.00
5877;BME280;2964;42.144;24.730;2022-12-10T08:41:06;143818.88;;;8.96;100.00
5877;BME280;2964;42.144;24.730;2022-12-10T08:43:33;143887.88;;;9.24;100.00
5877;BME280;2964;42.144;24.730;2022-12-10T08:45:59;143905.44;;;9.31;100.00
5877;BME280;2964;42.144;24.730;2022-12-10T08:48:26;143941.84;;;9.46;100.00
5877;BME280;2964;42.144;24.730;2022-12-10T08:50:53;143970.72;;;9.58;100.00
5877;BME280;2964;42.144;24.730;2022-12-10T08:53:20;144033.50;;;9.83;100.00
5877;BME280;2964;42.144;24.730;2022-12-10T08:55:50;144033.50;;;9.83;100.00
5877;BME280;2964;42.144;24.730;2022-12-10T08:58:17;144007.13;;;9.73;100.00
5877;BME280;2964;42.144;24.730;2022-12-10T09:00:44;144131.41;;;10.23;100.00
5877;BME280;2964;42.144;24.730;2022-12-10T09:03:11;144175.41;;;10.41;100.00
5877;BME280;2964;42.144;24.730;2022-12-10T09:05:38;144161.59;;;10.36;100.00
5877;BME280;2964;42.144;24.730;2022-12-10T09:08:06;144175.41;;;10.41;100.00
5877;BME280;2964;42.144;24.730;2022-12-10T09:10:35;144259.56;;;10.76;100.00
5877;BME280;2964;42.144;24.730;2022-12-10T09:13:05;144304.81;;;10.94;100.00
5877;BME280;2964;42.144;24.730;2022-12-10T09:15:33;144307.28;;;10.95;100.00
5877;BME280;2964;42.144;24.730;2022-12-10T09:18:01;144180.41;;;10.43;100.00
5877;BME280;2964;42.144;24.730;2022-12-10T09:20:43;144277.16;;;10.83;100.00
5877;BME280;2964;42.144;24.730;2022-12-10T09:23:13;144262.06;;;10.77;100.00
5877;BME280;2964;42.144;24.730;2022-12-10T09:25:43;144198.00;;;10.51;100.00
5877;BME280;2964;42.144;24.730;2022-12-10T09:28:14;144438.00;;;11.49;100.00
5877;BME280;2964;42.144;24.730;2022-12-10T09:30:41;144596.47;;;12.13;100.00
5877;BME280;2964;42.144;24.730;2022-12-10T09:33:08;144575.13;;;12.05;100.00
5877;BME280;2964;42.144;24.730;2022-12-10T09:35:39;144865.72;;;13.23;97.85
5877;BME280;2964;42.144;24.730;2022-12-10T09:38:06;145595.50;;;16.20;86.34
5877;BME280;2964;42.144;24.730;2022-12-10T09:40:39;145649.75;;;16.43;81.26
5877;BME280;2964;42.144;24.730;2022-12-10T09:43:16;145043.28;;;13.96;87.58
5877;BME280;2964;42.144;24.730;2022-12-10T09:45:55;145029.44;;;13.90;88.54
5877;BME280;2964;42.144;24.730;2022-12-10T09:48:29;144992.94;;;13.75;92.39
5877;BME280;2964;42.144;24.730;2022-12-10T09:51:06;144717.22;;;12.63;93.12
5877;BME280;2964;42.144;24.730;2022-12-10T09:53:37;144680.75;;;12.48;96.65
5877;BME280;2964;42.144;24.730;2022-12-10T09:56:05;144738.63;;;12.71;95.71
5877;BME280;2964;42.144;24.730;2022-12-10T09:58:36;144749.94;;;12.76;96.17
5877;BME280;2964;42.144;24.730;2022-12-10T10:01:05;144586.41;;;12.09;97.51
5877;BME280;2964;42.144;24.730;2022-12-10T10:03:37;144430.50;;;11.46;100.00
5877;BME280;2964;42.144;24.730;2022-12-10T10:06:05;144546.16;;;11.93;98.89
5877;BME280;2964;42.144;24.730;2022-12-10T10:08:34;144514.69;;;11.80;98.89
5877;BME280;2964;42.144;24.730;2022-12-10T10:11:03;144541.13;;;11.91;99.17
5877;BME280;2964;42.144;24.730;2022-12-10T10:13:35;144556.25;;;11.97;97.64
5877;BME280;2964;42.144;24.730;2022-12-10T10:16:22;144580.16;;;12.07;97.64
5877;BME280;2964;42.144;24.730;2022-12-10T10:18:54;144561.28;;;11.99;98.80
5877;BME280;2964;42.144;24.730;2022-12-10T10:21:24;144503.38;;;11.75;99.54
5877;BME280;2964;42.144;24.730;2022-12-10T10:23:52;144461.91;;;11.58;100.00
5877;BME280;2964;42.144;24.730;2022-12-10T10:26:19;144494.59;;;11.72;100.00
5877;BME280;2964;42.144;24.730;2022-12-10T10:28:49;144489.56;;;11.70;100.00
5877;BME280;2964;42.144;24.730;2022-12-10T10:31:20;144521.00;;;11.83;98.98
5877;BME280;2964;42.144;24.730;2022-12-10T10:33:49;144476.97;;;11.65;100.00
5877;BME280;2964;42.144;24.730;2022-12-10T10:36:23;144439.28;;;11.49;99.81
5877;BME280;2964;42.144;24.730;2022-12-10T10:38:51;144453.09;;;11.55;100.00
5877;BME280;2964;42.144;24.730;2022-12-10T10:41:17;144404.09;;;11.35;100.00
5877;BME280;2964;42.144;24.730;2022-12-10T10:43:45;144417.91;;;11.40;100.00
5877;BME280;2964;42.144;24.730;2022-12-10T10:46:15;144415.38;;;11.39;100.00
5877;BME280;2964;42.144;24.730;2022-12-10T10:48:43;144439.28;;;11.49;100.00
5877;BME280;2964;42.144;24.730;2022-12-10T10:51:18;144385.25;;;11.27;100.00
5877;BME280;2964;42.144;24.730;2022-12-10T10:53:46;144469.41;;;11.62;100.00
5877;BME280;2964;42.144;24.730;2022-12-10T10:56:16;144542.38;;;11.91;99.10
5877;BME280;2964;42.144;24.730;2022-12-10T10:58:50;144513.44;;;11.79;99.56
5877;BME280;2964;42.144;24.730;2022-12-10T11:01:20;144445.56;;;11.52;100.00
5877;BME280;2964;42.144;24.730;2022-12-10T11:03:49;144420.41;;;11.42;100.00
5877;BME280;2964;42.144;24.730;2022-12-10T11:06:17;144366.41;;;11.19;100.00
5877;BME280;2964;42.144;24.730;2022-12-10T11:08:45;144429.19;;;11.45;100.00
5877;BME280;2964;42.144;24.730;2022-12-10T11:11:18;144372.66;;;11.22;100.00
5877;BME280;2964;42.144;24.730;2022-12-10T11:13:46;144357.59;;;11.16;100.00
5877;BME280;2964;42.144;24.730;2022-12-10T11:16:18;144434.25;;;11.47;100.00
5877;BME280;2964;42.144;24.730;2022-12-10T11:18:55;144487.03;;;11.69;100.00
5877;BME280;2964;42.144;24.730;2022-12-10T11:21:28;144448.09;;;11.53;100.00
5877;BME280;2964;42.144;24.730;2022-12-10T11:23:56;144451.81;;;11.54;100.00
5877;BME280;2964;42.144;24.730;2022-12-10T11:26:39;144499.59;;;11.74;100.00
5877;BME280;2964;42.144;24.730;2022-12-10T11:29:20;144432.97;;;11.47;100.00
5877;BME280;2964;42.144;24.730;2022-12-10T11:31:57;144473.19;;;11.63;100.00
5877;BME280;2964;42.144;24.730;2022-12-10T11:34:35;144485.78;;;11.68;100.00
5877;BME280;2964;42.144;24.730;2022-12-10T11:37:13;144402.84;;;11.34;100.00
5877;BME280;2964;42.144;24.730;2022-12-10T11:39:57;144439.28;;;11.49;100.00
5877;BME280;2964;42.144;24.730;2022-12-10T11:42:36;144538.66;;;11.90;100.00
5877;BME280;2964;42.144;24.730;2022-12-10T11:45:12;144410.34;;;11.37;100.00
5877;BME280;2964;42.144;24.730;2022-12-10T11:47:52;144407.84;;;11.36;100.00
5877;BME280;2964;42.144;24.730;2022-12-10T11:50:28;144515.97;;;11.81;100.00
5877;BME280;2964;42.144;24.730;2022-12-10T11:53:18;144551.19;;;11.95;100.00
5877;BME280;2964;42.144;24.730;2022-12-10T11:55:52;144546.16;;;11.93;100.00
5877;BME280;2964;42.144;24.730;2022-12-10T12:01:22;144498.38;;;11.73;100.00
5877;BME280;2964;42.144;24.730;2022-12-10T12:04:18;144524.78;;;11.84;100.00
5877;BME280;2964;42.144;24.730;2022-12-10T12:07:00;144605.28;;;12.17;99.91
5877;BME280;2964;42.144;24.730;2022-12-10T12:09:35;144546.16;;;11.93;100.00
5877;BME280;2964;42.144;24.730;2022-12-10T12:12:15;144541.13;;;11.91;100.00
5877;BME280;2964;42.144;24.730;2022-12-10T12:14:53;144586.41;;;12.09;100.00
5877;BME280;2964;42.144;24.730;2022-12-10T12:17:29;144587.69;;;12.10;99.89
5877;BME280;2964;42.144;24.730;2022-12-10T12:19:59;144684.53;;;12.49;98.99
5877;BME280;2964;42.144;24.730;2022-12-10T12:22:32;144595.22;;;12.13;98.98
5877;BME280;2964;42.144;24.730;2022-12-10T12:25:02;144572.59;;;12.04;100.00
5877;BME280;2964;42.144;24.730;2022-12-10T12:27:33;144591.44;;;12.11;99.78
5877;BME280;2964;42.144;24.730;2022-12-10T12:30:05;144607.81;;;12.18;99.95
5877;BME280;2964;42.144;24.730;2022-12-10T12:32:42;144552.47;;;11.95;100.00
5877;BME280;2964;42.144;24.730;2022-12-10T12:35:12;144557.50;;;11.97;100.00
5877;BME280;2964;42.144;24.730;2022-12-10T12:37:46;144640.50;;;12.31;100.00
5877;BME280;2964;42.144;24.730;2022-12-10T12:40:29;144606.56;;;12.18;100.00
5877;BME280;2964;42.144;24.730;2022-12-10T12:42:59;144651.84;;;12.36;100.00
5877;BME280;2964;42.144;24.730;2022-12-10T12:45:33;144591.44;;;12.11;100.00
5877;BME280;2964;42.144;24.730;2022-12-10T12:48:09;144580.16;;;12.07;100.00
5877;BME280;2964;42.144;24.730;2022-12-10T12:50:42;144602.78;;;12.16;100.00
5877;BME280;2964;42.144;24.730;2022-12-10T12:53:13;144679.50;;;12.47;100.00
5877;BME280;2964;42.144;24.730;2022-12-10T12:55:46;144664.38;;;12.41;100.00
5877;BME280;2964;42.144;24.730;2022-12-10T12:58:22;144678.25;;;12.47;100.00
5877;BME280;2964;42.144;24.730;2022-12-10T13:00:55;144661.88;;;12.40;100.00
5877;BME280;2964;42.144;24.730;2022-12-10T13:03:33;144684.53;;;12.49;99.78
5877;BME280;2964;42.144;24.730;2022-12-10T13:06:19;144772.59;;;12.85;99.46
5877;BME280;2964;42.144;24.730;2022-12-10T13:08:52;144775.13;;;12.86;97.99
5877;BME280;2964;42.144;24.730;2022-12-10T13:11:28;144747.44;;;12.75;98.72
5877;BME280;2964;42.144;24.730;2022-12-10T13:17:27;144682.00;;;12.48;99.92
5877;BME280;2964;42.144;24.730;2022-12-10T13:20:28;144622.88;;;12.24;100.00